Time;durP1;ratioP1;P1;durP2;ratioP2;P2;SDS_P1;SDS_P2;PMS_P1;PMS_P2;Temp;Humidity;BMP_temperature;BMP_pressure;BME280_temperature;BME280_humidity;BME280_pressure;Samples;Min_cycle;Max_cycle;Signal;HPM_P1;HPM_P2
2023/01/26 00:01:44;;;;;;;42.15;40.55;;;6.60;96.70;;;;;;4990660;28;20030;-79
2023/01/26 00:04:10;;;;;;;43.63;42.00;;;6.60;96.80;;;;;;5006711;28;20026;-79
2023/01/26 00:06:36;;;;;;;43.03;41.42;;;6.70;96.80;;;;;;5007870;28;20032;-79
2023/01/26 00:09:02;;;;;;;45.58;43.88;;;6.70;96.80;;;;;;4990121;28;20114;-79
2023/01/26 00:11:29;;;;;;;44.58;42.88;;;6.80;96.80;;;;;;4990180;28;20042;-79
2023/01/26 00:13:59;;;;;;;44.10;42.45;;;6.80;96.70;;;;;;5007811;28;20121;-79
2023/01/26 00:16:26;;;;;;;45.20;43.50;;;6.80;96.60;;;;;;5007693;28;20430;-79
2023/01/26 00:18:52;;;;;;;40.90;39.40;;;6.80;96.70;;;;;;4990272;28;20030;-78
2023/01/26 00:21:20;;;;;;;39.92;38.42;;;6.80;96.70;;;;;;5006358;28;20482;-78
2023/01/26 00:23:47;;;;;;;40.22;38.72;;;6.80;96.80;;;;;;5022608;28;20394;-78
2023/01/26 00:26:19;;;;;;;40.13;38.63;;;6.80;96.80;;;;;;5007549;28;20049;-79
2023/01/26 00:28:45;;;;;;;43.35;41.75;;;6.90;96.80;;;;;;5007781;28;20402;-78
2023/01/26 00:31:14;;;;;;;44.00;42.40;;;6.90;96.70;;;;;;5006431;28;20038;-79
2023/01/26 00:33:40;;;;;;;42.95;41.35;;;6.90;96.70;;;;;;5006378;28;20030;-79
2023/01/26 00:36:06;;;;;;;47.08;45.38;;;6.80;96.60;;;;;;4989839;28;20060;-78
2023/01/26 00:38:32;;;;;;;41.78;40.22;;;6.80;96.60;;;;;;5006457;28;20022;-79
2023/01/26 00:40:58;;;;;;;48.65;46.85;;;6.70;96.70;;;;;;4989953;28;20398;-79
2023/01/26 00:43:24;;;;;;;45.53;43.83;;;6.70;96.70;;;;;;4990167;28;20108;-79
2023/01/26 00:45:49;;;;;;;44.58;42.90;;;6.70;96.70;;;;;;4973988;28;20126;-79
2023/01/26 00:48:15;;;;;;;47.60;45.80;;;6.70;96.70;;;;;;4989918;28;20065;-78
2023/01/26 00:50:41;;;;;;;46.28;44.58;;;6.70;96.70;;;;;;5006221;28;20034;-79
2023/01/26 00:53:07;;;;;;;46.13;44.40;;;6.70;96.70;;;;;;5022389;28;20414;-78
2023/01/26 00:55:33;;;;;;;;;;;6.70;96.80;;;;;;5007624;28;20050;-78
2023/01/26 00:58:03;;;;;;;40.78;39.28;;;6.70;96.80;;;;;;5005942;28;20350;-78
2023/01/26 01:00:30;;;;;;;41.33;39.83;;;6.70;96.80;;;;;;5007349;28;20084;-78
2023/01/26 01:02:56;;;;;;;42.10;40.50;;;6.70;96.80;;;;;;5010595;28;20018;-78
2023/01/26 01:05:22;;;;;;;;;;;6.80;96.80;;;;;;5011602;28;20386;-78
2023/01/26 01:07:48;;;;;;;36.25;34.85;;;6.80;96.80;;;;;;5009519;28;19910;-78
2023/01/26 01:10:14;;;;;;;37.40;36.00;;;6.90;96.70;;;;;;4977030;28;20534;-78
2023/01/26 01:12:40;;;;;;;38.28;36.88;;;6.90;96.70;;;;;;5010884;28;20038;-78
2023/01/26 01:15:07;;;;;;;38.25;36.85;;;6.90;96.70;;;;;;5010748;28;20084;-78
2023/01/26 01:17:35;;;;;;;37.75;36.35;;;6.90;96.70;;;;;;5009514;28;20026;-78
2023/01/26 01:20:01;;;;;;;37.90;36.50;;;6.90;96.80;;;;;;4977901;28;20026;-78
2023/01/26 01:22:27;;;;;;;;;;;7.00;96.80;;;;;;5009684;28;20041;-78
2023/01/26 01:24:52;;;;;;;38.25;36.85;;;7.00;96.80;;;;;;5010855;28;19905;-78
2023/01/26 01:27:18;;;;;;;36.60;35.20;;;7.10;96.70;;;;;;5009098;28;20061;-78
2023/01/26 01:29:44;;;;;;;34.67;33.38;;;7.00;96.70;;;;;;5009020;28;20394;-78
2023/01/26 01:32:09;;;;;;;35.22;33.92;;;7.10;96.70;;;;;;4992875;28;20121;-78
2023/01/26 01:34:35;;;;;;;36.50;35.10;;;7.10;96.70;;;;;;5009000;28;20045;-79
2023/01/26 01:37:01;;;;;;;32.92;31.73;;;7.10;96.70;;;;;;5010272;28;20438;-79
2023/01/26 01:39:26;;;;;;;33.72;32.42;;;7.10;96.70;;;;;;5009993;28;20038;-78
2023/01/26 01:41:52;;;;;;;32.22;31.02;;;7.20;96.80;;;;;;4976558;28;20056;-78
2023/01/26 01:44:23;;;;;;;33.55;32.25;;;7.20;96.90;;;;;;4992931;28;20034;-78
2023/01/26 01:47:02;;;;;;;33.00;31.80;;;7.20;96.90;;;;;;4993136;28;20034;-78
2023/01/26 01:49:51;;;;;;;35.63;34.33;;;7.20;96.90;;;;;;5025394;28;20041;-79
2023/01/26 01:52:25;;;;;;;39.80;38.30;;;7.20;96.80;;;;;;5009891;28;20506;-79
2023/01/26 01:54:55;;;;;;;37.28;35.88;;;7.10;96.90;;;;;;5009812;28;20046;-78
2023/01/26 01:57:28;;;;;;;39.50;38.00;;;7.00;96.80;;;;;;5008640;28;20030;-78
2023/01/26 02:00:04;;;;;;;39.40;37.92;;;7.00;96.80;;;;;;5008501;28;20117;-78
2023/01/26 02:02:30;;;;;;;39.90;38.40;;;6.90;96.80;;;;;;5010091;28;20022;-78
2023/01/26 02:05:01;;;;;;;36.72;35.33;;;6.90;96.80;;;;;;5009978;28;20037;-78
2023/01/26 02:07:29;;;;;;;35.92;34.63;;;6.90;96.80;;;;;;5008495;28;20482;-77
2023/01/26 02:12:41;;;;;;;39.35;37.85;;;7.00;96.80;;;;;;5009835;28;20139;-78
2023/01/26 02:15:07;;;;;;;39.05;37.58;;;7.00;96.70;;;;;;5008436;28;20049;-78
2023/01/26 02:17:33;;;;;;;38.33;36.92;;;7.00;96.70;;;;;;5009427;28;20033;-78
2023/01/26 02:20:04;;;;;;;40.00;38.50;;;7.00;96.70;;;;;;5008053;28;20037;-78
2023/01/26 02:22:57;;;;;;;39.35;37.85;;;7.00;96.80;;;;;;5008040;28;20034;-78
2023/01/26 02:25:43;;;;;;;39.00;37.55;;;7.00;96.80;;;;;;5008064;28;20046;-78
2023/01/26 02:28:08;;;;;;;37.53;36.13;;;7.10;96.80;;;;;;5009401;28;20017;-78
2023/01/26 02:30:34;;;;;;;36.85;35.45;;;7.10;96.80;;;;;;4991642;28;20467;-78
2023/01/26 02:33:00;;;;;;;38.95;37.53;;;7.20;96.80;;;;;;5029235;28;20117;-78
2023/01/26 02:35:26;;;;;;;38.50;37.10;;;7.20;96.80;;;;;;4976327;28;20034;-78
2023/01/26 02:37:52;;;;;;;41.30;39.80;;;7.20;96.70;;;;;;4991667;28;20053;-78
2023/01/26 02:40:28;;;;;;;40.15;38.65;;;7.20;96.70;;;;;;4991375;28;20437;-78
2023/01/26 02:42:54;;;;;;;38.83;37.42;;;7.20;96.70;;;;;;5009088;28;20440;-78
2023/01/26 02:45:20;;;;;;;39.58;38.08;;;7.10;96.70;;;;;;5007672;28;20490;-78
2023/01/26 02:47:46;;;;;;;39.38;37.88;;;7.20;96.70;;;;;;5008873;28;20029;-78
2023/01/26 02:50:13;;;;;;;38.08;36.67;;;7.10;96.70;;;;;;5007569;28;20497;-78
2023/01/26 02:52:39;;;;;;;38.30;36.90;;;7.10;96.70;;;;;;4991112;28;20041;-77
2023/01/26 02:57:51;;;;;;;36.97;35.58;;;7.10;96.80;;;;;;5008736;28;20053;-78
2023/01/26 03:00:26;;;;;;;38.60;37.20;;;7.10;96.80;;;;;;5007360;28;20026;-78
2023/01/26 03:02:54;;;;;;;41.40;39.90;;;7.10;96.70;;;;;;5008851;28;20426;-78
2023/01/26 03:05:20;;;;;;;40.00;38.50;;;7.20;96.70;;;;;;5008666;28;20099;-78
2023/01/26 03:07:46;;;;;;;41.45;39.95;;;7.10;96.70;;;;;;5008809;28;20511;-79
2023/01/26 03:10:12;;;;;;;45.38;43.67;;;7.10;96.70;;;;;;5008525;28;20419;-78
2023/01/26 03:12:38;;;;;;;42.33;40.72;;;7.10;96.70;;;;;;5007312;28;20112;-78
2023/01/26 03:17:49;;;;;;;43.97;42.38;;;7.10;96.70;;;;;;4993963;28;20055;-78
2023/01/26 03:28:27;;;;;;;39.90;38.40;;;7.10;96.70;;;;;;5008420;28;20096;-78
2023/01/26 03:30:55;;;;;;;42.50;40.90;;;7.10;96.80;;;;;;5007014;28;20034;-78
2023/01/26 03:33:21;;;;;;;40.78;39.28;;;7.10;96.80;;;;;;5008251;28;20461;-78
2023/01/26 03:35:46;;;;;;;40.08;38.58;;;7.20;96.80;;;;;;5006698;28;20034;-78
2023/01/26 03:38:12;;;;;;;39.35;37.85;;;7.20;96.80;;;;;;5008029;28;20034;-78
2023/01/26 03:57:05;;;;;;;36.85;35.45;;;7.30;96.70;;;;;;5006865;28;20092;-78
2023/01/26 03:59:39;;;;;;;35.80;34.50;;;7.30;96.70;;;;;;4990358;28;20022;-78
2023/01/26 04:10:25;;;;;;;33.83;32.53;;;7.40;96.80;;;;;;5007959;28;20068;-78
2023/01/26 04:23:53;;;;;;;33.55;32.25;;;7.60;96.80;;;;;;5008004;28;20092;-78
2023/01/26 04:26:19;;;;;;;37.05;35.65;;;7.60;96.70;;;;;;5006329;28;20445;-78
2023/01/26 04:28:44;;;;;;;35.42;34.13;;;7.60;96.70;;;;;;5006441;28;20034;-79
2023/01/26 04:31:10;;;;;;;39.63;38.13;;;7.60;96.80;;;;;;5006462;28;20324;-79
2023/01/26 04:33:36;;;;;;;36.58;35.17;;;7.60;96.80;;;;;;4990186;28;20058;-79
2023/01/26 04:36:05;;;;;;;33.95;32.65;;;7.60;96.80;;;;;;4989953;28;20379;-78
2023/01/26 04:38:31;;;;;;;36.45;35.05;;;7.60;96.80;;;;;;4992537;28;20512;-78
2023/01/26 04:40:57;;;;;;;40.22;38.72;;;7.60;96.80;;;;;;5011384;28;20030;-79
2023/01/26 04:43:23;;;;;;;37.55;36.15;;;7.60;96.80;;;;;;5010179;28;20037;-78
2023/01/26 04:46:07;;;;;;;39.03;37.60;;;7.60;96.70;;;;;;5010135;28;20505;-78
2023/01/26 04:48:33;;;;;;;39.97;38.47;;;7.60;96.70;;;;;;5011220;28;20072;-78
2023/01/26 04:51:02;;;;;;;39.42;37.92;;;7.60;96.70;;;;;;5011094;28;20088;-78
2023/01/26 04:53:28;;;;;;;40.70;39.20;;;7.60;96.70;;;;;;5010899;28;20061;-78
2023/01/26 04:55:54;;;;;;;38.55;37.15;;;7.60;96.60;;;;;;5010847;28;20035;-78
2023/01/26 04:58:21;;;;;;;37.95;36.55;;;7.50;96.60;;;;;;5009580;28;20076;-78
2023/01/26 05:00:56;;;;;;;39.78;38.28;;;7.50;96.70;;;;;;5010923;28;20489;-78
2023/01/26 05:03:24;;;;;;;40.25;38.75;;;7.40;96.70;;;;;;4993282;28;20113;-78
2023/01/26 05:05:51;;;;;;;42.35;40.75;;;7.40;96.60;;;;;;5009486;28;20474;-78
2023/01/26 05:08:19;;;;;;;44.05;42.45;;;7.30;96.50;;;;;;5009289;28;20470;-77
2023/01/26 05:10:45;;;;;;;43.83;42.22;;;7.10;96.40;;;;;;5009740;28;20502;-78
2023/01/26 05:13:11;;;;;;;43.40;41.80;;;7.00;96.40;;;;;;5009272;28;20037;-79
2023/01/26 05:15:37;;;;;;;44.10;42.50;;;6.90;96.50;;;;;;5010499;28;20164;-78
2023/01/26 05:18:04;;;;;;;49.75;47.92;;;6.70;96.50;;;;;;5009441;28;20511;-78
2023/01/26 05:20:30;;;;;;;;;;;6.60;96.50;;;;;;5009891;28;20433;-79
2023/01/26 05:22:55;;;;;;;52.50;50.58;;;6.50;96.50;;;;;;5009203;28;20258;-78
2023/01/26 05:25:21;;;;;;;57.10;55.00;;;6.40;96.40;;;;;;4993067;28;20052;-78
2023/01/26 05:27:47;;;;;;;58.28;56.08;;;6.30;96.40;;;;;;5009399;28;20038;-78
2023/01/26 05:30:13;;;;;;;60.42;58.17;;;6.20;96.40;;;;;;5009098;28;20057;-78
2023/01/26 05:32:39;;;;;;;58.22;56.03;;;6.20;96.40;;;;;;5009175;28;20034;-78
2023/01/26 05:35:05;;;;;;;59.22;57.03;;;6.10;96.40;;;;;;4992750;28;20035;-78
2023/01/26 05:37:32;;;;;;;62.97;60.67;;;6.00;96.40;;;;;;5012499;28;20084;-78
2023/01/26 05:39:57;;;;;;;;;;;5.90;96.40;;;;;;4993674;28;20030;-78
2023/01/26 05:42:23;;;;;;;64.80;62.40;;;5.90;96.40;;;;;;5009049;28;19992;-78
2023/01/26 05:44:49;;;;;;;67.35;64.85;;;5.80;96.40;;;;;;5010433;28;20409;-78
2023/01/26 05:47:15;;;;;;;63.33;60.92;;;5.80;96.50;;;;;;5008916;28;20038;-78
2023/01/26 05:49:44;;;;;;;64.82;62.42;;;5.80;96.50;;;;;;5010063;28;20029;-77
2023/01/26 05:52:15;;;;;;;61.65;59.35;;;5.80;96.50;;;;;;5009022;28;20037;-78
2023/01/26 05:54:41;;;;;;;56.55;54.45;;;5.80;96.60;;;;;;5009931;28;20033;-78
2023/01/26 05:57:08;;;;;;;59.03;56.83;;;5.80;96.60;;;;;;5008634;28;20396;-79
2023/01/26 05:59:33;;;;;;;57.53;55.42;;;5.80;96.60;;;;;;5008361;28;20037;-78
2023/01/26 06:01:59;;;;;;;57.97;55.78;;;5.80;96.60;;;;;;4992186;28;20025;-78
2023/01/26 06:04:26;;;;;;;54.97;52.92;;;5.80;96.50;;;;;;5008509;28;20109;-77
2023/01/26 06:06:52;;;;;;;55.75;53.65;;;5.70;96.50;;;;;;4992330;28;20122;-78
2023/01/26 06:09:19;;;;;;;53.85;51.85;;;5.70;96.50;;;;;;5008540;28;20085;-78
2023/01/26 06:11:45;;;;;;;50.00;48.10;;;5.80;96.60;;;;;;5008372;28;20030;-78
2023/01/26 06:14:11;;;;;;;53.55;51.55;;;5.80;96.70;;;;;;5009654;28;20033;-78
2023/01/26 06:16:37;;;;;;;50.88;48.97;;;5.90;96.70;;;;;;5009508;28;20088;-78
2023/01/26 06:19:03;;;;;;;48.53;46.72;;;6.00;96.70;;;;;;5008168;28;20030;-79
2023/01/26 06:21:30;;;;;;;48.38;46.58;;;6.00;96.70;;;;;;5008344;28;20096;-78
2023/01/26 06:23:55;;;;;;;45.00;43.30;;;6.10;96.70;;;;;;5008108;28;20030;-78
2023/01/26 06:26:23;;;;;;;45.40;43.70;;;6.20;96.60;;;;;;5008147;28;20029;-78
2023/01/26 06:28:49;;;;;;;44.67;42.97;;;6.20;96.60;;;;;;4975713;28;20044;-78
2023/01/26 06:31:15;;;;;;;;;;;6.10;96.70;;;;;;5009559;28;20037;-78
2023/01/26 06:33:41;;;;;;;44.78;43.08;;;6.10;96.60;;;;;;4992200;28;19909;-78
2023/01/26 06:36:09;;;;;;;42.55;40.95;;;6.00;96.70;;;;;;5007930;28;20409;-78
2023/01/26 06:38:35;;;;;;;43.75;42.15;;;6.10;96.70;;;;;;5009230;28;20049;-78
2023/01/26 06:41:03;;;;;;;44.25;42.65;;;6.10;96.60;;;;;;5009147;28;20025;-78
2023/01/26 06:43:30;;;;;;;42.08;40.47;;;6.10;96.60;;;;;;4991610;28;20034;-78
2023/01/26 06:45:59;;;;;;;41.40;39.90;;;6.20;96.60;;;;;;5008751;28;20488;-79
2023/01/26 06:48:26;;;;;;;41.72;40.15;;;6.20;96.60;;;;;;5009010;28;20034;-78
2023/01/26 06:50:52;;;;;;;39.45;37.95;;;6.20;96.60;;;;;;5007886;28;20034;-78
2023/01/26 06:53:29;;;;;;;39.22;37.72;;;6.20;96.50;;;;;;5007634;28;20089;-79
2023/01/26 06:55:55;;;;;;;39.17;37.67;;;6.30;96.60;;;;;;5007294;28;20542;-78
2023/01/26 06:58:21;;;;;;;40.55;39.05;;;6.30;96.60;;;;;;5007085;28;20128;-78
2023/01/26 07:00:46;;;;;;;43.60;42.00;;;6.30;96.50;;;;;;5006316;28;20463;-78
2023/01/26 07:03:12;;;;;;;40.80;39.30;;;6.30;96.50;;;;;;5007032;28;20084;-78
2023/01/26 07:05:38;;;;;;;39.63;38.13;;;6.30;96.50;;;;;;5007140;28;20386;-79
2023/01/26 07:08:06;;;;;;;39.78;38.28;;;6.20;96.50;;;;;;5008371;28;20076;-78
2023/01/26 07:10:32;;;;;;;40.58;39.08;;;6.30;96.60;;;;;;4975027;28;20038;-75
2023/01/26 07:12:57;;;;;;;39.38;37.88;;;6.30;96.70;;;;;;4991272;28;20040;-79
2023/01/26 07:15:23;;;;;;;41.17;39.67;;;6.40;96.70;;;;;;4974492;28;20442;-78
2023/01/26 07:17:49;;;;;;;41.05;39.55;;;6.40;96.60;;;;;;4990663;28;20113;-78
2023/01/26 07:20:14;;;;;;;38.15;36.75;;;6.40;96.60;;;;;;5008407;28;20469;-78
2023/01/26 07:22:40;;;;;;;37.63;36.22;;;6.40;96.60;;;;;;5007288;28;20025;-78
2023/01/26 07:25:06;;;;;;;38.20;36.80;;;6.40;96.60;;;;;;4990893;28;20070;-79
2023/01/26 07:27:32;;;;;;;38.35;36.95;;;6.40;96.60;;;;;;4990843;28;20104;-78
2023/01/26 07:29:58;;;;;;;37.92;36.53;;;6.40;96.60;;;;;;5009059;28;20121;-81
2023/01/26 07:32:24;;;;;;;37.17;35.78;;;6.40;96.70;;;;;;5007541;28;20034;-79
2023/01/26 07:34:49;;;;;;;37.28;35.88;;;6.40;96.70;;;;;;4990572;28;20038;-79
2023/01/26 07:37:15;;;;;;;37.90;36.50;;;6.40;96.70;;;;;;5006685;28;20034;-78
2023/01/26 07:39:41;;;;;;;38.10;36.70;;;6.40;96.70;;;;;;5006668;28;20037;-79
2023/01/26 07:42:08;;;;;;;37.30;35.90;;;6.40;96.70;;;;;;5006632;28;20103;-79
2023/01/26 07:44:34;;;;;;;38.13;36.72;;;6.40;96.60;;;;;;5007970;28;20037;-79
2023/01/26 07:47:00;;;;;;;35.97;34.63;;;6.40;96.60;;;;;;5006812;28;20026;-79
2023/01/26 07:49:25;;;;;;;35.42;34.13;;;6.30;96.70;;;;;;5006898;28;20030;-79
2023/01/26 07:51:52;;;;;;;37.08;35.67;;;6.20;96.70;;;;;;5006872;28;20189;-79
2023/01/26 07:54:20;;;;;;;34.60;33.30;;;6.10;96.80;;;;;;5008185;28;20034;-79
2023/01/26 07:56:49;;;;;;;34.00;32.70;;;6.10;96.80;;;;;;4990095;28;20046;-78
2023/01/26 07:59:15;;;;;;;32.75;31.55;;;6.10;96.90;;;;;;5005964;28;20490;-79
2023/01/26 08:01:40;;;;;;;33.60;32.33;;;6.10;96.90;;;;;;4990309;28;20052;-79
2023/01/26 08:04:06;;;;;;;34.08;32.78;;;6.20;96.90;;;;;;5006381;28;20434;-79
2023/01/26 08:06:32;;;;;;;32.08;30.88;;;6.20;96.90;;;;;;4990043;28;20487;-77
2023/01/26 08:08:57;;;;;;;31.90;30.70;;;6.20;96.90;;;;;;5010124;28;20109;-79
2023/01/26 08:11:24;;;;;;;32.75;31.55;;;6.20;96.90;;;;;;4996198;28;20433;-79
2023/01/26 08:13:50;;;;;;;34.03;32.72;;;6.20;96.90;;;;;;5019817;28;20041;-81
2023/01/26 08:16:16;;;;;;;33.72;32.42;;;6.20;96.80;;;;;;5006586;28;20354;-79
2023/01/26 08:18:44;;;;;;;33.35;32.05;;;6.10;96.80;;;;;;5001522;28;20499;-80
2023/01/26 08:21:11;;;;;;;33.15;31.85;;;6.10;96.80;;;;;;5020721;28;20033;-80
2023/01/26 08:23:37;;;;;;;30.88;29.67;;;6.00;96.90;;;;;;5017763;28;20493;-79
2023/01/26 08:26:06;;;;;;;33.78;32.47;;;6.00;96.90;;;;;;5016426;28;20034;-79
2023/01/26 08:28:33;;;;;;;31.52;30.33;;;5.90;96.90;;;;;;5020498;28;20040;-80
2023/01/26 08:31:06;;;;;;;32.47;31.27;;;6.00;97.00;;;;;;5019115;28;20064;-79
2023/01/26 08:33:32;;;;;;;34.42;33.13;;;6.00;97.00;;;;;;5017953;28;20390;-79
2023/01/26 08:36:03;;;;;;;30.90;29.70;;;5.90;97.00;;;;;;5022778;28;20029;-80
2023/01/26 08:38:33;;;;;;;30.55;29.35;;;6.00;97.10;;;;;;5024529;28;20022;-79
2023/01/26 08:41:00;;;;;;;30.20;29.00;;;6.00;97.10;;;;;;4994914;28;20026;-77
2023/01/26 08:43:27;;;;;;;30.40;29.20;;;6.10;97.10;;;;;;5025331;28;20056;-80
2023/01/26 08:45:52;;;;;;;;;;;6.10;97.10;;;;;;5017968;28;20051;-80
2023/01/26 08:48:18;;;;;;;27.65;26.55;;;6.10;97.10;;;;;;5027268;28;19905;-78
2023/01/26 08:50:45;;;;;;;28.02;26.92;;;6.20;97.10;;;;;;5034088;28;20026;-79
2023/01/26 08:53:11;;;;;;;26.70;25.70;;;6.20;97.10;;;;;;5033280;28;20082;-78
2023/01/26 08:55:36;;;;;;;27.90;26.80;;;6.30;97.20;;;;;;5015641;28;20054;-77
2023/01/26 08:58:03;;;;;;;25.48;24.48;;;6.40;97.20;;;;;;5012000;28;20037;-80
2023/01/26 09:00:29;;;;;;;28.33;27.23;;;6.50;97.20;;;;;;5031786;28;20028;-78
2023/01/26 09:03:00;;;;;;;26.30;25.30;;;6.60;97.20;;;;;;5031101;28;20058;-78
2023/01/26 09:05:26;;;;;;;24.48;23.48;;;6.60;97.10;;;;;;5027330;28;20120;-79
2023/01/26 09:07:52;;;;;;;25.33;24.33;;;6.60;97.20;;;;;;4993315;28;20030;-80
2023/01/26 09:10:18;;;;;;;25.17;24.17;;;6.70;97.20;;;;;;5029238;28;20093;-78
2023/01/26 09:12:44;;;;;;;25.15;24.15;;;6.80;97.20;;;;;;5030705;28;20029;-79
2023/01/26 09:15:10;;;;;;;24.48;23.48;;;6.90;97.20;;;;;;4997504;28;20110;-79
2023/01/26 09:17:36;;;;;;;24.27;23.27;;;6.90;97.20;;;;;;5031332;28;20057;-79
2023/01/26 09:20:03;;;;;;;25.02;24.02;;;7.00;97.20;;;;;;5028954;28;20026;-80
2023/01/26 09:22:29;;;;;;;23.20;22.30;;;7.10;97.20;;;;;;5014926;28;20112;-80
2023/01/26 09:24:55;;;;;;;24.17;23.25;;;7.10;97.10;;;;;;5011814;28;20065;-80
2023/01/26 09:27:21;;;;;;;23.42;22.52;;;7.10;97.10;;;;;;5014368;28;20028;-80
2023/01/26 09:29:47;;;;;;;24.08;23.17;;;7.00;97.10;;;;;;4997462;28;20030;-81
2023/01/26 09:32:13;;;;;;;23.25;22.35;;;7.10;97.20;;;;;;5011118;28;20030;-81
2023/01/26 09:34:38;;;;;;;22.77;21.88;;;7.10;97.20;;;;;;5012971;28;20025;-81
2023/01/26 09:37:06;;;;;;;23.10;22.20;;;7.00;97.20;;;;;;5016392;28;20124;-81
2023/01/26 09:39:32;;;;;;;22.83;21.92;;;7.10;97.30;;;;;;5038863;28;20040;-81
2023/01/26 09:42:16;;;;;;;24.15;23.20;;;7.10;97.30;;;;;;5038165;28;20035;-79
2023/01/26 09:45:11;;;;;;;21.83;20.92;;;7.10;97.20;;;;;;5041107;28;20393;-81
2023/01/26 09:48:03;;;;;;;19.20;18.40;;;7.10;97.30;;;;;;5040762;28;20025;-82
2023/01/26 09:51:03;;;;;;;19.60;18.80;;;7.20;97.40;;;;;;5042476;28;20013;-81
2023/01/26 09:53:46;;;;;;;20.38;19.58;;;7.40;97.40;;;;;;5025773;28;20030;-81
2023/01/26 09:56:21;;;;;;;19.65;18.85;;;7.50;97.30;;;;;;5042559;28;20052;-83
2023/01/26 09:58:58;;;;;;;21.90;21.00;;;7.60;97.30;;;;;;5032229;28;20176;-82
2023/01/26 10:01:49;;;;;;;20.15;19.35;;;7.70;97.20;;;;;;5037812;28;20041;-82
2023/01/26 10:04:28;;;;;;;19.17;18.38;;;7.80;97.20;;;;;;5038949;28;20041;-82
2023/01/26 10:06:56;;;;;;;18.50;17.70;;;7.80;97.20;;;;;;5045796;28;20021;-82
2023/01/26 10:09:28;;;;;;;19.30;18.50;;;7.90;97.30;;;;;;5046909;28;20083;-84
2023/01/26 10:12:02;;;;;;;19.17;18.38;;;8.00;97.30;;;;;;5036314;28;20025;-84
2023/01/26 10:14:39;;;;;;;18.10;17.40;;;8.10;97.30;;;;;;5043965;28;20029;-83
2023/01/26 10:17:13;;;;;;;17.55;16.85;;;8.10;97.30;;;;;;5054507;28;20021;-83
2023/01/26 10:19:44;;;;;;;17.67;16.98;;;8.20;97.30;;;;;;5046301;28;20021;-83
2023/01/26 10:22:41;;;;;;;17.00;16.30;;;8.30;97.30;;;;;;5046894;28;20033;-82
2023/01/26 10:25:18;;;;;;;15.80;15.10;;;8.40;97.30;;;;;;5039446;28;20021;-85
2023/01/26 10:27:45;;;;;;;16.52;15.82;;;8.40;97.30;;;;;;5044903;28;20024;-80
2023/01/26 10:30:16;;;;;;;16.20;15.50;;;8.40;97.30;;;;;;5032757;28;20033;-83
2023/01/26 10:32:44;;;;;;;17.23;16.52;;;8.50;97.30;;;;;;5034821;28;20049;-81
2023/01/26 10:35:24;;;;;;;16.25;15.55;;;8.60;97.30;;;;;;5039509;28;20028;-81
2023/01/26 10:37:51;;;;;;;17.13;16.42;;;8.70;97.30;;;;;;5037033;28;21309;-68
2023/01/26 10:40:18;;;;;;;15.50;14.80;;;8.70;97.30;;;;;;5026505;28;20028;-80
2023/01/26 10:42:57;;;;;;;14.90;14.30;;;8.80;97.40;;;;;;5049448;28;20057;-80
2023/01/26 10:45:24;;;;;;;15.27;14.68;;;8.80;97.50;;;;;;5051406;28;20025;-81
2023/01/26 10:48:17;;;;;;;14.70;14.10;;;8.90;97.50;;;;;;5052226;28;20024;-77
2023/01/26 10:50:43;;;;;;;13.10;12.50;;;9.00;97.60;;;;;;5051488;28;20108;-76
2023/01/26 10:53:17;;;;;;;;;;;9.10;97.60;;;;;;5051090;28;20025;-77
2023/01/26 10:55:59;;;;;;;11.93;11.43;;;9.20;97.60;;;;;;5050198;28;19916;-75
2023/01/26 10:59:01;;;;;;;12.27;11.75;;;9.20;97.50;;;;;;5051117;28;20112;-76
2023/01/26 11:01:27;;;;;;;12.65;12.05;;;9.30;97.50;;;;;;5041161;28;20029;-79
2023/01/26 11:04:20;;;;;;;13.07;12.48;;;9.30;97.40;;;;;;5029455;28;20109;-80
2023/01/26 11:06:45;;;;;;;11.43;10.93;;;9.30;97.50;;;;;;5028226;28;20098;-77
2023/01/26 11:09:14;;;;;;;12.68;12.07;;;9.30;97.50;;;;;;5017445;28;20033;-76
2023/01/26 11:11:40;;;;;;;11.30;10.80;;;9.30;97.50;;;;;;5044271;28;20025;-77
2023/01/26 11:14:18;;;;;;;11.40;10.90;;;9.40;97.50;;;;;;5031337;28;20029;-78
2023/01/26 11:17:00;;;;;;;11.68;11.18;;;9.40;97.50;;;;;;5031397;28;20031;-77
2023/01/26 11:19:38;;;;;;;11.60;11.10;;;9.30;97.40;;;;;;5030348;28;20027;-75
2023/01/26 11:22:07;;;;;;;11.80;11.30;;;9.30;97.40;;;;;;5041264;28;20028;-79
2023/01/26 11:24:46;;;;;;;12.23;11.73;;;9.20;97.40;;;;;;5049254;28;20108;-78
2023/01/26 11:27:47;;;;;;;12.40;11.85;;;9.20;97.40;;;;;;5044050;28;20022;-75
2023/01/26 11:30:30;;;;;;;12.23;11.70;;;9.20;97.40;;;;;;5051649;28;20029;-79
2023/01/26 11:33:03;;;;;;;12.57;11.98;;;9.20;97.50;;;;;;5027132;28;20037;-77
2023/01/26 11:35:46;;;;;;;12.60;12.00;;;9.20;97.50;;;;;;5042307;28;20053;-79
2023/01/26 11:38:15;;;;;;;12.10;11.60;;;9.20;97.50;;;;;;5026861;28;20013;-74
2023/01/26 11:40:57;;;;;;;11.70;11.20;;;9.20;97.60;;;;;;5033645;28;20020;-77
2023/01/26 11:43:32;;;;;;;12.10;11.60;;;9.30;97.60;;;;;;5039634;28;20029;-76
2023/01/26 11:46:07;;;;;;;12.27;11.77;;;9.30;97.50;;;;;;5049038;28;20029;-72
2023/01/26 11:48:57;;;;;;;12.23;11.73;;;9.30;97.60;;;;;;5031298;28;20026;-75
2023/01/26 11:51:50;;;;;;;11.95;11.45;;;9.40;97.60;;;;;;5038082;28;20470;-79
2023/01/26 11:54:49;;;;;;;11.35;10.85;;;9.40;97.50;;;;;;5045917;28;20124;-79
2023/01/26 11:57:37;;;;;;;11.10;10.60;;;9.40;97.50;;;;;;5012918;28;20038;-79
2023/01/26 12:00:18;;;;;;;10.35;9.85;;;9.60;97.60;;;;;;5011171;28;20433;-80
2023/01/26 12:02:56;;;;;;;10.00;9.50;;;9.60;97.60;;;;;;5019756;28;20072;-81
2023/01/26 12:05:40;;;;;;;10.05;9.55;;;9.70;97.60;;;;;;5042187;28;20028;-79
2023/01/26 12:08:22;;;;;;;9.60;9.10;;;9.80;97.60;;;;;;5030529;28;20079;-79
2023/01/26 12:11:24;;;;;;;8.88;8.48;;;10.00;97.70;;;;;;5037410;28;20071;-82
2023/01/26 12:14:26;;;;;;;7.90;7.50;;;10.20;97.70;;;;;;5019440;28;20025;-80
2023/01/26 12:17:14;;;;;;;8.45;8.05;;;10.30;97.70;;;;;;5032650;28;20025;-79
2023/01/26 12:20:32;;;;;;;7.60;7.20;;;10.30;97.60;;;;;;5037507;28;20449;-77
2023/01/26 12:23:10;;;;;;;7.60;7.20;;;10.40;97.60;;;;;;5040726;28;20036;-80
2023/01/26 12:25:40;;;;;;;8.25;7.85;;;10.30;97.60;;;;;;5048896;28;20063;-75
2023/01/26 12:28:30;;;;;;;7.95;7.55;;;10.30;97.60;;;;;;5028496;28;20068;-78
2023/01/26 12:31:17;;;;;;;7.88;7.47;;;10.20;97.70;;;;;;5029221;28;20450;-76
2023/01/26 12:33:43;;;;;;;7.75;7.35;;;10.20;97.50;;;;;;5045348;28;20392;-76
2023/01/26 12:36:12;;;;;;;;;;;10.10;97.50;;;;;;5017653;28;20058;-79
2023/01/26 12:38:50;;;;;;;9.45;8.98;;;10.10;97.60;;;;;;5027452;28;20017;-75
2023/01/26 12:41:42;;;;;;;8.90;8.50;;;10.10;97.60;;;;;;5042273;28;20062;-76
2023/01/26 12:44:23;;;;;;;8.10;7.70;;;10.10;97.80;;;;;;5029521;28;20180;-78
2023/01/26 12:46:57;;;;;;;9.02;8.63;;;10.20;97.70;;;;;;5048735;28;20044;-76
2023/01/26 12:49:49;;;;;;;8.02;7.63;;;10.20;97.70;;;;;;5041562;28;20471;-76
2023/01/26 12:52:46;;;;;;;8.15;7.75;;;10.30;97.80;;;;;;5034311;28;20041;-78
2023/01/26 12:55:21;;;;;;;7.72;7.32;;;10.30;97.70;;;;;;5044660;28;20041;-79
2023/01/26 12:58:04;;;;;;;7.78;7.38;;;10.40;97.60;;;;;;5048760;28;20040;-77
2023/01/26 13:00:35;;;;;;;7.63;7.22;;;10.40;97.60;;;;;;5038921;28;20488;-79
2023/01/26 13:03:27;;;;;;;7.95;7.55;;;10.40;97.60;;;;;;5033396;28;20096;-81
2023/01/26 13:06:15;;;;;;;7.60;7.20;;;10.50;97.70;;;;;;5039557;28;20056;-81
2023/01/26 13:08:56;;;;;;;8.02;7.63;;;10.60;97.80;;;;;;5014964;28;20080;-81
2023/01/26 13:11:40;;;;;;;7.60;7.20;;;10.70;97.70;;;;;;5018982;28;20139;-80
2023/01/26 13:14:36;;;;;;;7.63;7.22;;;10.80;97.60;;;;;;5044936;28;20053;-79
2023/01/26 13:17:13;;;;;;;7.07;6.68;;;10.80;97.50;;;;;;5047271;28;20029;-80
2023/01/26 13:19:42;;;;;;;7.05;6.65;;;10.80;97.50;;;;;;5054550;28;20408;-79
2023/01/26 13:22:39;;;;;;;7.00;6.60;;;10.80;97.50;;;;;;5040516;28;20021;-77
2023/01/26 13:25:31;;;;;;;6.40;6.00;;;10.80;97.60;;;;;;5034721;28;20047;-81
2023/01/26 13:28:01;;;;;;;6.47;6.07;;;10.90;97.50;;;;;;5054673;28;20045;-82
2023/01/26 13:30:33;;;;;;;6.65;6.25;;;10.90;97.60;;;;;;5047168;28;20025;-82
2023/01/26 13:33:17;;;;;;;6.45;6.05;;;10.90;97.60;;;;;;5052702;28;20082;-82
2023/01/26 13:35:44;;;;;;;5.82;5.53;;;10.90;97.70;;;;;;5053115;28;20474;-79
2023/01/26 13:38:15;;;;;;;7.03;6.63;;;11.00;97.70;;;;;;5050935;28;20033;-81
2023/01/26 13:40:45;;;;;;;6.00;5.70;;;11.10;97.80;;;;;;5050374;28;20032;-80
2023/01/26 13:43:31;;;;;;;4.95;4.65;;;11.30;97.90;;;;;;5052253;28;20028;-82
2023/01/26 13:46:11;;;;;;;4.35;4.05;;;11.40;97.80;;;;;;5039328;28;20037;-82
2023/01/26 13:48:40;;;;;;;4.05;3.75;;;11.40;97.80;;;;;;5030449;28;20036;-81
2023/01/26 13:51:11;;;;;;;5.20;4.90;;;11.50;97.70;;;;;;5031572;28;20035;-82
2023/01/26 13:53:42;;;;;;;4.85;4.55;;;11.40;97.60;;;;;;5032083;28;20026;-81